OKBK/KWI METAR and TAF weather

Enter ICAO airport designator
Station Type Date Time Source
OKBK METAR 2020/11/27 12:59 UTC NOAA

OKBK 271259Z 13011KT 9999 SCT040 BKN080 25/15 Q1017 NOSIG


Station Type Date Time Source
OKBK Decoded METAR 2020/11/27 12:59 UTC NOAA

Kuwait Internationalairport, Kuwait (OKBK) 29-13N 047-59E 55M
Nov 27, 2020 - 07:59 AM EST / 2020.11.27 1259 UTC
Wind: from the SE (130 degrees) at 13 MPH (11 KT):0
Visibility: greater than 7 mile(s):0
Sky conditions: mostly cloudy
Temperature: 77 F (25 C)
Dew Point: 59 F (15 C)
Relative Humidity: 53%
Pressure (altimeter): 30.03 in. Hg (1017 hPa)
ob: OKBK 271259Z 13011KT 9999 SCT040 BKN080 25/15 Q1017 NOSIG
cycle: 13

Station Type Date Time Source
OKBK TAF 2020/11/27 12:48 UTC NOAA

TAF TAF OKBK 271045Z 2712/2818 13010G22KT 7000 SCT040 BKN100
TEMPO 2712/2721 3000 TSRA/BLDU FEW020CB

Example: see airport list